sensor_id;sensor_type;location;lat;lon;timestamp;P1;durP1;ratioP1;P2;durP2;ratioP2
48859;SDS011;34679;51.436;-2.518;2023-07-13T00:00:02;5.25;;;2.90;;
48859;SDS011;34679;51.436;-2.518;2023-07-13T00:02:33;8.45;;;3.42;;
48859;SDS011;34679;51.436;-2.518;2023-07-13T00:04:59;16.75;;;4.82;;
48859;SDS011;34679;51.436;-2.518;2023-07-13T00:07:25;9.20;;;2.88;;
48859;SDS011;34679;51.436;-2.518;2023-07-13T00:09:51;14.63;;;3.63;;
48859;SDS011;34679;51.436;-2.518;2023-07-13T00:12:27;14.68;;;3.60;;
48859;SDS011;34679;51.436;-2.518;2023-07-13T00:14:58;9.43;;;3.47;;
48859;SDS011;34679;51.436;-2.518;2023-07-13T00:17:25;11.23;;;3.10;;
48859;SDS011;34679;51.436;-2.518;2023-07-13T00:19:52;11.43;;;3.30;;
48859;SDS011;34679;51.436;-2.518;2023-07-13T00:22:18;9.15;;;3.30;;
48859;SDS011;34679;51.436;-2.518;2023-07-13T00:24:44;10.90;;;3.30;;
48859;SDS011;34679;51.436;-2.518;2023-07-13T00:27:10;8.52;;;2.95;;
48859;SDS011;34679;51.436;-2.518;2023-07-13T00:29:37;11.00;;;3.30;;
48859;SDS011;34679;51.436;-2.518;2023-07-13T00:32:03;10.95;;;3.10;;
48859;SDS011;34679;51.436;-2.518;2023-07-13T00:34:30;11.15;;;3.08;;
48859;SDS011;34679;51.436;-2.518;2023-07-13T00:36:56;14.32;;;3.65;;
48859;SDS011;34679;51.436;-2.518;2023-07-13T00:39:22;9.60;;;3.28;;
48859;SDS011;34679;51.436;-2.518;2023-07-13T00:41:48;11.55;;;3.72;;
48859;SDS011;34679;51.436;-2.518;2023-07-13T00:44:14;12.55;;;3.70;;
48859;SDS011;34679;51.436;-2.518;2023-07-13T00:46:40;8.90;;;4.00;;
48859;SDS011;34679;51.436;-2.518;2023-07-13T00:49:07;12.02;;;3.40;;
48859;SDS011;34679;51.436;-2.518;2023-07-13T00:54:20;9.25;;;3.53;;
48859;SDS011;34679;51.436;-2.518;2023-07-13T00:56:48;9.23;;;3.20;;
48859;SDS011;34679;51.436;-2.518;2023-07-13T00:59:17;11.02;;;3.65;;
48859;SDS011;34679;51.436;-2.518;2023-07-13T01:01:45;7.50;;;3.13;;
48859;SDS011;34679;51.436;-2.518;2023-07-13T01:04:11;9.60;;;3.85;;
48859;SDS011;34679;51.436;-2.518;2023-07-13T01:06:38;16.98;;;4.18;;
48859;SDS011;34679;51.436;-2.518;2023-07-13T01:09:06;14.68;;;3.95;;
48859;SDS011;34679;51.436;-2.518;2023-07-13T01:11:33;8.68;;;3.65;;
48859;SDS011;34679;51.436;-2.518;2023-07-13T01:14:00;9.25;;;3.80;;
48859;SDS011;34679;51.436;-2.518;2023-07-13T01:16:31;7.15;;;3.45;;
48859;SDS011;34679;51.436;-2.518;2023-07-13T01:18:58;7.57;;;3.55;;
48859;SDS011;34679;51.436;-2.518;2023-07-13T01:21:27;8.25;;;4.03;;
48859;SDS011;34679;51.436;-2.518;2023-07-13T01:23:53;8.18;;;2.97;;
48859;SDS011;34679;51.436;-2.518;2023-07-13T01:26:19;9.52;;;2.67;;
48859;SDS011;34679;51.436;-2.518;2023-07-13T01:28:45;10.35;;;3.08;;
48859;SDS011;34679;51.436;-2.518;2023-07-13T01:31:11;7.65;;;3.13;;
48859;SDS011;34679;51.436;-2.518;2023-07-13T01:33:38;8.07;;;3.08;;
48859;SDS011;34679;51.436;-2.518;2023-07-13T01:36:05;6.82;;;2.90;;
48859;SDS011;34679;51.436;-2.518;2023-07-13T01:38:34;5.68;;;3.08;;
48859;SDS011;34679;51.436;-2.518;2023-07-13T01:41:01;5.90;;;3.08;;
48859;SDS011;34679;51.436;-2.518;2023-07-13T01:43:28;10.93;;;3.30;;
48859;SDS011;34679;51.436;-2.518;2023-07-13T01:45:54;5.30;;;2.60;;
48859;SDS011;34679;51.436;-2.518;2023-07-13T01:48:19;6.18;;;2.80;;
48859;SDS011;34679;51.436;-2.518;2023-07-13T01:50:45;8.05;;;2.97;;
48859;SDS011;34679;51.436;-2.518;2023-07-13T01:53:12;8.52;;;2.92;;
48859;SDS011;34679;51.436;-2.518;2023-07-13T01:55:38;10.07;;;3.22;;
48859;SDS011;34679;51.436;-2.518;2023-07-13T01:58:04;9.60;;;3.30;;
48859;SDS011;34679;51.436;-2.518;2023-07-13T02:00:30;7.75;;;2.58;;
48859;SDS011;34679;51.436;-2.518;2023-07-13T02:02:55;10.10;;;2.80;;
48859;SDS011;34679;51.436;-2.518;2023-07-13T02:05:22;11.82;;;2.97;;
48859;SDS011;34679;51.436;-2.518;2023-07-13T02:07:48;7.28;;;3.17;;
48859;SDS011;34679;51.436;-2.518;2023-07-13T02:10:14;7.38;;;3.13;;
48859;SDS011;34679;51.436;-2.518;2023-07-13T02:12:40;21.15;;;5.80;;
48859;SDS011;34679;51.436;-2.518;2023-07-13T02:15:06;7.43;;;3.53;;
48859;SDS011;34679;51.436;-2.518;2023-07-13T02:17:33;7.55;;;2.78;;
48859;SDS011;34679;51.436;-2.518;2023-07-13T02:19:59;11.63;;;3.00;;
48859;SDS011;34679;51.436;-2.518;2023-07-13T02:22:25;10.68;;;2.40;;
48859;SDS011;34679;51.436;-2.518;2023-07-13T02:24:51;5.68;;;2.40;;
48859;SDS011;34679;51.436;-2.518;2023-07-13T02:27:17;6.63;;;3.47;;
48859;SDS011;34679;51.436;-2.518;2023-07-13T02:29:43;9.93;;;3.63;;
48859;SDS011;34679;51.436;-2.518;2023-07-13T02:32:09;10.30;;;3.25;;
48859;SDS011;34679;51.436;-2.518;2023-07-13T02:34:35;6.60;;;2.97;;
48859;SDS011;34679;51.436;-2.518;2023-07-13T02:37:01;7.65;;;3.00;;
48859;SDS011;34679;51.436;-2.518;2023-07-13T02:39:26;8.98;;;3.30;;
48859;SDS011;34679;51.436;-2.518;2023-07-13T02:41:52;4.95;;;2.83;;
48859;SDS011;34679;51.436;-2.518;2023-07-13T02:44:18;8.65;;;3.45;;
48859;SDS011;34679;51.436;-2.518;2023-07-13T02:46:44;5.15;;;3.03;;
48859;SDS011;34679;51.436;-2.518;2023-07-13T02:49:09;11.00;;;3.65;;
48859;SDS011;34679;51.436;-2.518;2023-07-13T02:51:35;12.40;;;3.10;;
48859;SDS011;34679;51.436;-2.518;2023-07-13T02:54:02;9.88;;;2.85;;
48859;SDS011;34679;51.436;-2.518;2023-07-13T02:56:29;11.07;;;4.10;;
48859;SDS011;34679;51.436;-2.518;2023-07-13T02:58:56;6.65;;;2.83;;
48859;SDS011;34679;51.436;-2.518;2023-07-13T03:01:22;20.77;;;4.38;;
48859;SDS011;34679;51.436;-2.518;2023-07-13T03:03:49;5.85;;;2.85;;
48859;SDS011;34679;51.436;-2.518;2023-07-13T03:06:15;10.43;;;3.65;;
48859;SDS011;34679;51.436;-2.518;2023-07-13T03:08:42;6.10;;;3.20;;
48859;SDS011;34679;51.436;-2.518;2023-07-13T03:11:13;9.52;;;3.67;;
48859;SDS011;34679;51.436;-2.518;2023-07-13T03:13:41;6.75;;;3.33;;
48859;SDS011;34679;51.436;-2.518;2023-07-13T03:16:07;9.55;;;3.22;;
48859;SDS011;34679;51.436;-2.518;2023-07-13T03:18:35;5.70;;;3.30;;
48859;SDS011;34679;51.436;-2.518;2023-07-13T03:21:01;7.03;;;3.53;;
48859;SDS011;34679;51.436;-2.518;2023-07-13T03:23:27;6.82;;;3.30;;
48859;SDS011;34679;51.436;-2.518;2023-07-13T03:26:07;6.95;;;3.58;;
48859;SDS011;34679;51.436;-2.518;2023-07-13T03:28:35;9.48;;;3.42;;
48859;SDS011;34679;51.436;-2.518;2023-07-13T03:31:10;14.07;;;3.63;;
48859;SDS011;34679;51.436;-2.518;2023-07-13T03:33:38;12.75;;;3.85;;
48859;SDS011;34679;51.436;-2.518;2023-07-13T03:36:05;8.05;;;3.13;;
48859;SDS011;34679;51.436;-2.518;2023-07-13T03:38:32;9.38;;;4.05;;
48859;SDS011;34679;51.436;-2.518;2023-07-13T03:40:58;8.65;;;3.80;;
48859;SDS011;34679;51.436;-2.518;2023-07-13T03:43:24;5.95;;;3.63;;
48859;SDS011;34679;51.436;-2.518;2023-07-13T03:45:50;5.57;;;2.95;;
48859;SDS011;34679;51.436;-2.518;2023-07-13T03:48:15;4.03;;;3.25;;
48859;SDS011;34679;51.436;-2.518;2023-07-13T03:50:41;15.50;;;3.63;;
48859;SDS011;34679;51.436;-2.518;2023-07-13T03:53:07;7.78;;;3.97;;
48859;SDS011;34679;51.436;-2.518;2023-07-13T03:55:33;8.93;;;3.35;;
48859;SDS011;34679;51.436;-2.518;2023-07-13T03:58:00;9.38;;;3.38;;
48859;SDS011;34679;51.436;-2.518;2023-07-13T04:00:46;9.77;;;3.67;;
48859;SDS011;34679;51.436;-2.518;2023-07-13T04:03:12;9.30;;;3.65;;
48859;SDS011;34679;51.436;-2.518;2023-07-13T04:05:38;8.00;;;3.40;;
48859;SDS011;34679;51.436;-2.518;2023-07-13T04:08:05;7.90;;;3.50;;
48859;SDS011;34679;51.436;-2.518;2023-07-13T04:10:31;6.63;;;3.08;;
48859;SDS011;34679;51.436;-2.518;2023-07-13T04:12:57;13.15;;;4.75;;
48859;SDS011;34679;51.436;-2.518;2023-07-13T04:15:23;9.57;;;3.10;;
48859;SDS011;34679;51.436;-2.518;2023-07-13T04:17:48;9.23;;;3.75;;
48859;SDS011;34679;51.436;-2.518;2023-07-13T04:20:14;11.52;;;3.45;;
48859;SDS011;34679;51.436;-2.518;2023-07-13T04:22:40;8.48;;;2.83;;
48859;SDS011;34679;51.436;-2.518;2023-07-13T04:25:06;5.03;;;2.95;;
48859;SDS011;34679;51.436;-2.518;2023-07-13T04:27:32;6.60;;;3.60;;
48859;SDS011;34679;51.436;-2.518;2023-07-13T04:29:57;12.10;;;3.40;;
48859;SDS011;34679;51.436;-2.518;2023-07-13T04:32:23;11.45;;;3.22;;
48859;SDS011;34679;51.436;-2.518;2023-07-13T04:34:49;12.25;;;3.30;;
48859;SDS011;34679;51.436;-2.518;2023-07-13T04:37:20;15.40;;;4.90;;
48859;SDS011;34679;51.436;-2.518;2023-07-13T04:39:45;9.23;;;2.35;;
48859;SDS011;34679;51.436;-2.518;2023-07-13T04:42:11;9.48;;;2.60;;
48859;SDS011;34679;51.436;-2.518;2023-07-13T04:44:37;6.53;;;2.97;;
48859;SDS011;34679;51.436;-2.518;2023-07-13T04:47:03;4.25;;;2.70;;
48859;SDS011;34679;51.436;-2.518;2023-07-13T04:49:29;7.82;;;2.58;;
48859;SDS011;34679;51.436;-2.518;2023-07-13T04:51:55;4.70;;;2.30;;
48859;SDS011;34679;51.436;-2.518;2023-07-13T04:54:21;6.78;;;2.85;;
48859;SDS011;34679;51.436;-2.518;2023-07-13T04:56:47;6.40;;;2.63;;
48859;SDS011;34679;51.436;-2.518;2023-07-13T04:59:13;8.45;;;3.05;;
48859;SDS011;34679;51.436;-2.518;2023-07-13T05:01:38;9.00;;;2.67;;
48859;SDS011;34679;51.436;-2.518;2023-07-13T05:04:05;3.50;;;2.55;;
48859;SDS011;34679;51.436;-2.518;2023-07-13T05:06:31;11.07;;;3.38;;
48859;SDS011;34679;51.436;-2.518;2023-07-13T05:08:57;7.57;;;2.70;;
48859;SDS011;34679;51.436;-2.518;2023-07-13T05:11:23;5.95;;;2.70;;
48859;SDS011;34679;51.436;-2.518;2023-07-13T05:13:49;5.28;;;2.50;;
48859;SDS011;34679;51.436;-2.518;2023-07-13T05:16:15;10.23;;;2.50;;
48859;SDS011;34679;51.436;-2.518;2023-07-13T05:18:40;5.72;;;2.38;;
48859;SDS011;34679;51.436;-2.518;2023-07-13T05:21:07;4.70;;;2.25;;
48859;SDS011;34679;51.436;-2.518;2023-07-13T05:23:34;3.53;;;1.95;;
48859;SDS011;34679;51.436;-2.518;2023-07-13T05:26:01;4.70;;;2.40;;
48859;SDS011;34679;51.436;-2.518;2023-07-13T05:28:28;4.13;;;1.95;;
48859;SDS011;34679;51.436;-2.518;2023-07-13T05:30:55;5.18;;;1.90;;
48859;SDS011;34679;51.436;-2.518;2023-07-13T05:33:21;3.63;;;1.85;;
48859;SDS011;34679;51.436;-2.518;2023-07-13T05:35:47;5.90;;;2.05;;
48859;SDS011;34679;51.436;-2.518;2023-07-13T05:38:13;9.75;;;1.98;;
48859;SDS011;34679;51.436;-2.518;2023-07-13T05:40:39;5.10;;;2.10;;
48859;SDS011;34679;51.436;-2.518;2023-07-13T05:43:07;8.68;;;1.83;;
48859;SDS011;34679;51.436;-2.518;2023-07-13T05:45:32;3.75;;;1.95;;
48859;SDS011;34679;51.436;-2.518;2023-07-13T05:47:58;6.90;;;2.30;;
48859;SDS011;34679;51.436;-2.518;2023-07-13T05:50:25;5.53;;;3.22;;
48859;SDS011;34679;51.436;-2.518;2023-07-13T05:52:51;5.45;;;2.08;;
48859;SDS011;34679;51.436;-2.518;2023-07-13T05:55:17;6.97;;;2.13;;
48859;SDS011;34679;51.436;-2.518;2023-07-13T05:57:44;9.20;;;2.20;;
48859;SDS011;34679;51.436;-2.518;2023-07-13T06:00:10;10.07;;;2.28;;
48859;SDS011;34679;51.436;-2.518;2023-07-13T06:02:36;4.45;;;2.05;;
48859;SDS011;34679;51.436;-2.518;2023-07-13T06:05:02;3.78;;;2.03;;
48859;SDS011;34679;51.436;-2.518;2023-07-13T06:07:27;4.32;;;1.88;;
48859;SDS011;34679;51.436;-2.518;2023-07-13T06:09:53;6.88;;;2.13;;
48859;SDS011;34679;51.436;-2.518;2023-07-13T06:12:19;5.55;;;1.85;;
48859;SDS011;34679;51.436;-2.518;2023-07-13T06:14:44;6.78;;;1.90;;
48859;SDS011;34679;51.436;-2.518;2023-07-13T06:17:10;7.45;;;2.03;;
48859;SDS011;34679;51.436;-2.518;2023-07-13T06:19:36;5.70;;;2.30;;
48859;SDS011;34679;51.436;-2.518;2023-07-13T06:22:02;4.13;;;2.05;;
48859;SDS011;34679;51.436;-2.518;2023-07-13T06:24:28;3.60;;;1.65;;
48859;SDS011;34679;51.436;-2.518;2023-07-13T06:26:54;7.28;;;1.98;;
48859;SDS011;34679;51.436;-2.518;2023-07-13T06:29:19;2.22;;;1.42;;
48859;SDS011;34679;51.436;-2.518;2023-07-13T06:31:45;5.03;;;1.85;;
48859;SDS011;34679;51.436;-2.518;2023-07-13T06:34:11;4.15;;;1.48;;
48859;SDS011;34679;51.436;-2.518;2023-07-13T06:36:36;8.15;;;1.83;;
48859;SDS011;34679;51.436;-2.518;2023-07-13T06:39:03;8.15;;;2.38;;
48859;SDS011;34679;51.436;-2.518;2023-07-13T06:41:29;6.88;;;1.85;;
48859;SDS011;34679;51.436;-2.518;2023-07-13T06:43:55;3.67;;;1.60;;
48859;SDS011;34679;51.436;-2.518;2023-07-13T06:46:21;5.95;;;1.50;;
48859;SDS011;34679;51.436;-2.518;2023-07-13T06:48:47;6.78;;;1.42;;
48859;SDS011;34679;51.436;-2.518;2023-07-13T06:51:13;4.05;;;1.17;;
48859;SDS011;34679;51.436;-2.518;2023-07-13T06:53:39;12.90;;;1.70;;
48859;SDS011;34679;51.436;-2.518;2023-07-13T06:56:05;3.08;;;1.30;;
48859;SDS011;34679;51.436;-2.518;2023-07-13T06:58:31;3.90;;;1.20;;
48859;SDS011;34679;51.436;-2.518;2023-07-13T07:00:58;4.97;;;1.30;;
48859;SDS011;34679;51.436;-2.518;2023-07-13T07:03:24;3.88;;;1.20;;
48859;SDS011;34679;51.436;-2.518;2023-07-13T07:05:50;4.35;;;1.52;;
48859;SDS011;34679;51.436;-2.518;2023-07-13T07:08:15;4.40;;;1.25;;
48859;SDS011;34679;51.436;-2.518;2023-07-13T07:10:41;7.07;;;1.48;;
48859;SDS011;34679;51.436;-2.518;2023-07-13T07:13:07;7.28;;;1.75;;
48859;SDS011;34679;51.436;-2.518;2023-07-13T07:15:34;9.68;;;1.63;;
48859;SDS011;34679;51.436;-2.518;2023-07-13T07:18:00;4.90;;;1.38;;
48859;SDS011;34679;51.436;-2.518;2023-07-13T07:20:26;7.35;;;1.40;;
48859;SDS011;34679;51.436;-2.518;2023-07-13T07:22:52;3.65;;;1.38;;
48859;SDS011;34679;51.436;-2.518;2023-07-13T07:25:18;4.38;;;1.60;;
48859;SDS011;34679;51.436;-2.518;2023-07-13T07:27:44;4.75;;;1.48;;
48859;SDS011;34679;51.436;-2.518;2023-07-13T07:30:10;7.90;;;1.70;;
48859;SDS011;34679;51.436;-2.518;2023-07-13T07:32:37;3.67;;;1.33;;
48859;SDS011;34679;51.436;-2.518;2023-07-13T07:35:02;3.38;;;1.20;;
48859;SDS011;34679;51.436;-2.518;2023-07-13T07:37:28;4.47;;;1.50;;
48859;SDS011;34679;51.436;-2.518;2023-07-13T07:39:54;4.38;;;1.83;;
48859;SDS011;34679;51.436;-2.518;2023-07-13T07:42:20;2.85;;;1.35;;
48859;SDS011;34679;51.436;-2.518;2023-07-13T07:44:46;4.43;;;1.77;;
48859;SDS011;34679;51.436;-2.518;2023-07-13T07:47:11;4.03;;;1.20;;
48859;SDS011;34679;51.436;-2.518;2023-07-13T07:49:37;4.72;;;1.27;;
48859;SDS011;34679;51.436;-2.518;2023-07-13T07:52:03;1.83;;;1.10;;
48859;SDS011;34679;51.436;-2.518;2023-07-13T07:54:29;3.88;;;1.17;;
48859;SDS011;34679;51.436;-2.518;2023-07-13T07:56:55;3.20;;;1.30;;
48859;SDS011;34679;51.436;-2.518;2023-07-13T07:59:21;5.25;;;1.63;;
48859;SDS011;34679;51.436;-2.518;2023-07-13T08:01:46;5.75;;;1.48;;
48859;SDS011;34679;51.436;-2.518;2023-07-13T08:04:15;3.38;;;1.45;;
48859;SDS011;34679;51.436;-2.518;2023-07-13T08:06:41;2.50;;;1.50;;
48859;SDS011;34679;51.436;-2.518;2023-07-13T08:09:07;6.80;;;1.50;;
48859;SDS011;34679;51.436;-2.518;2023-07-13T08:11:33;4.47;;;1.77;;
48859;SDS011;34679;51.436;-2.518;2023-07-13T08:13:59;4.95;;;1.50;;
48859;SDS011;34679;51.436;-2.518;2023-07-13T08:16:24;3.85;;;1.10;;
48859;SDS011;34679;51.436;-2.518;2023-07-13T08:18:51;3.28;;;1.25;;
48859;SDS011;34679;51.436;-2.518;2023-07-13T08:21:16;3.50;;;1.52;;
48859;SDS011;34679;51.436;-2.518;2023-07-13T08:23:45;4.53;;;1.27;;
48859;SDS011;34679;51.436;-2.518;2023-07-13T08:26:12;1.83;;;1.27;;
48859;SDS011;34679;51.436;-2.518;2023-07-13T08:28:38;6.28;;;1.33;;
48859;SDS011;34679;51.436;-2.518;2023-07-13T08:31:04;3.22;;;1.20;;
48859;SDS011;34679;51.436;-2.518;2023-07-13T08:33:32;4.60;;;1.27;;
48859;SDS011;34679;51.436;-2.518;2023-07-13T08:35:59;2.85;;;1.38;;
48859;SDS011;34679;51.436;-2.518;2023-07-13T08:38:24;3.10;;;1.30;;
48859;SDS011;34679;51.436;-2.518;2023-07-13T08:40:54;2.53;;;1.30;;
48859;SDS011;34679;51.436;-2.518;2023-07-13T08:43:28;4.10;;;1.40;;
48859;SDS011;34679;51.436;-2.518;2023-07-13T08:46:13;4.18;;;1.88;;
48859;SDS011;34679;51.436;-2.518;2023-07-13T08:48:49;5.80;;;1.73;;
48859;SDS011;34679;51.436;-2.518;2023-07-13T08:53:54;6.07;;;1.83;;
48859;SDS011;34679;51.436;-2.518;2023-07-13T08:56:25;4.22;;;1.92;;
48859;SDS011;34679;51.436;-2.518;2023-07-13T08:58:55;6.07;;;2.00;;
48859;SDS011;34679;51.436;-2.518;2023-07-13T09:04:33;4.85;;;2.05;;
48859;SDS011;34679;51.436;-2.518;2023-07-13T09:10:20;4.35;;;1.42;;
48859;SDS011;34679;51.436;-2.518;2023-07-13T09:13:00;2.35;;;1.35;;
48859;SDS011;34679;51.436;-2.518;2023-07-13T09:15:38;3.22;;;1.10;;
48859;SDS011;34679;51.436;-2.518;2023-07-13T09:20:48;4.38;;;1.40;;
48859;SDS011;34679;51.436;-2.518;2023-07-13T09:23:19;4.22;;;1.30;;
48859;SDS011;34679;51.436;-2.518;2023-07-13T09:25:47;8.32;;;1.80;;
48859;SDS011;34679;51.436;-2.518;2023-07-13T09:28:24;4.70;;;1.55;;
48859;SDS011;34679;51.436;-2.518;2023-07-13T09:31:03;4.25;;;1.10;;
48859;SDS011;34679;51.436;-2.518;2023-07-13T09:33:32;2.72;;;0.93;;
48859;SDS011;34679;51.436;-2.518;2023-07-13T09:36:00;2.95;;;1.38;;
48859;SDS011;34679;51.436;-2.518;2023-07-13T09:38:28;3.53;;;1.20;;
48859;SDS011;34679;51.436;-2.518;2023-07-13T09:43:29;4.03;;;1.40;;
48859;SDS011;34679;51.436;-2.518;2023-07-13T09:45:55;2.28;;;0.90;;
48859;SDS011;34679;51.436;-2.518;2023-07-13T09:48:21;4.18;;;1.35;;
48859;SDS011;34679;51.436;-2.518;2023-07-13T09:50:47;2.25;;;1.27;;
48859;SDS011;34679;51.436;-2.518;2023-07-13T09:53:17;2.67;;;1.33;;
48859;SDS011;34679;51.436;-2.518;2023-07-13T09:55:45;3.17;;;1.48;;
48859;SDS011;34679;51.436;-2.518;2023-07-13T09:58:17;5.22;;;1.48;;
48859;SDS011;34679;51.436;-2.518;2023-07-13T10:00:54;2.70;;;1.58;;
48859;SDS011;34679;51.436;-2.518;2023-07-13T10:05:57;4.93;;;1.98;;
48859;SDS011;34679;51.436;-2.518;2023-07-13T10:08:35;2.95;;;1.70;;
48859;SDS011;34679;51.436;-2.518;2023-07-13T10:11:08;5.47;;;1.63;;
48859;SDS011;34679;51.436;-2.518;2023-07-13T10:13:48;3.47;;;1.55;;
48859;SDS011;34679;51.436;-2.518;2023-07-13T10:16:26;3.08;;;1.60;;
48859;SDS011;34679;51.436;-2.518;2023-07-13T10:18:58;8.30;;;1.25;;
48859;SDS011;34679;51.436;-2.518;2023-07-13T10:21:53;4.47;;;1.30;;
48859;SDS011;34679;51.436;-2.518;2023-07-13T10:24:21;2.85;;;1.50;;
48859;SDS011;34679;51.436;-2.518;2023-07-13T10:27:02;5.43;;;1.52;;
48859;SDS011;34679;51.436;-2.518;2023-07-13T10:29:48;4.75;;;1.10;;
48859;SDS011;34679;51.436;-2.518;2023-07-13T10:32:23;2.50;;;1.30;;
48859;SDS011;34679;51.436;-2.518;2023-07-13T10:34:50;4.50;;;1.40;;
48859;SDS011;34679;51.436;-2.518;2023-07-13T10:38:01;3.28;;;1.40;;
48859;SDS011;34679;51.436;-2.518;2023-07-13T10:40:37;2.13;;;1.15;;
48859;SDS011;34679;51.436;-2.518;2023-07-13T10:43:22;2.38;;;1.00;;
48859;SDS011;34679;51.436;-2.518;2023-07-13T10:45:52;3.10;;;1.05;;
48859;SDS011;34679;51.436;-2.518;2023-07-13T10:48:19;1.88;;;0.90;;
48859;SDS011;34679;51.436;-2.518;2023-07-13T10:50:48;1.55;;;1.10;;
48859;SDS011;34679;51.436;-2.518;2023-07-13T10:53:21;3.13;;;1.25;;
48859;SDS011;34679;51.436;-2.518;2023-07-13T10:56:05;2.40;;;1.20;;
48859;SDS011;34679;51.436;-2.518;2023-07-13T10:58:47;4.35;;;1.25;;
48859;SDS011;34679;51.436;-2.518;2023-07-13T11:01:55;2.55;;;1.10;;
48859;SDS011;34679;51.436;-2.518;2023-07-13T11:04:44;1.65;;;0.90;;
48859;SDS011;34679;51.436;-2.518;2023-07-13T11:07:20;3.00;;;1.10;;
48859;SDS011;34679;51.436;-2.518;2023-07-13T11:09:51;0.75;;;0.65;;
48859;SDS011;34679;51.436;-2.518;2023-07-13T11:22:42;1.90;;;0.85;;
48859;SDS011;34679;51.436;-2.518;2023-07-13T11:25:31;4.30;;;1.17;;
48859;SDS011;34679;51.436;-2.518;2023-07-13T11:30:32;2.03;;;0.80;;
48859;SDS011;34679;51.436;-2.518;2023-07-13T11:38:39;2.70;;;1.10;;
48859;SDS011;34679;51.436;-2.518;2023-07-13T11:43:54;2.15;;;0.90;;
48859;SDS011;34679;51.436;-2.518;2023-07-13T11:46:25;2.63;;;0.80;;
48859;SDS011;34679;51.436;-2.518;2023-07-13T11:48:52;2.03;;;1.00;;
48859;SDS011;34679;51.436;-2.518;2023-07-13T11:51:22;2.28;;;0.98;;
48859;SDS011;34679;51.436;-2.518;2023-07-13T11:53:55;2.58;;;0.90;;
48859;SDS011;34679;51.436;-2.518;2023-07-13T11:56:23;2.03;;;0.88;;
48859;SDS011;34679;51.436;-2.518;2023-07-13T11:58:51;3.60;;;1.05;;
48859;SDS011;34679;51.436;-2.518;2023-07-13T12:01:20;2.95;;;1.20;;
48859;SDS011;34679;51.436;-2.518;2023-07-13T12:03:48;2.47;;;0.80;;
48859;SDS011;34679;51.436;-2.518;2023-07-13T12:06:27;5.35;;;0.90;;
48859;SDS011;34679;51.436;-2.518;2023-07-13T12:08:58;4.57;;;0.90;;
48859;SDS011;34679;51.436;-2.518;2023-07-13T12:11:26;1.53;;;0.80;;
48859;SDS011;34679;51.436;-2.518;2023-07-13T12:13:52;4.07;;;0.98;;
48859;SDS011;34679;51.436;-2.518;2023-07-13T12:16:31;2.20;;;1.02;;
48859;SDS011;34679;51.436;-2.518;2023-07-13T12:19:01;2.97;;;1.10;;
48859;SDS011;34679;51.436;-2.518;2023-07-13T12:21:32;1.70;;;0.90;;
48859;SDS011;34679;51.436;-2.518;2023-07-13T12:23:59;1.45;;;0.90;;
48859;SDS011;34679;51.436;-2.518;2023-07-13T12:26:29;1.02;;;0.70;;
48859;SDS011;34679;51.436;-2.518;2023-07-13T12:28:56;1.75;;;1.42;;
48859;SDS011;34679;51.436;-2.518;2023-07-13T12:34:49;2.45;;;0.98;;
48859;SDS011;34679;51.436;-2.518;2023-07-13T12:36:58;1.75;;;0.80;;
48859;SDS011;34679;51.436;-2.518;2023-07-13T12:39:35;1.27;;;0.80;;
48859;SDS011;34679;51.436;-2.518;2023-07-13T12:44:57;1.38;;;0.73;;
48859;SDS011;34679;51.436;-2.518;2023-07-13T12:47:26;2.78;;;0.80;;
48859;SDS011;34679;51.436;-2.518;2023-07-13T12:49:54;1.67;;;0.90;;
48859;SDS011;34679;51.436;-2.518;2023-07-13T12:52:29;2.28;;;1.00;;
48859;SDS011;34679;51.436;-2.518;2023-07-13T12:55:09;3.60;;;1.17;;
48859;SDS011;34679;51.436;-2.518;2023-07-13T12:57:43;4.50;;;1.00;;
48859;SDS011;34679;51.436;-2.518;2023-07-13T13:00:22;5.75;;;1.20;;
48859;SDS011;34679;51.436;-2.518;2023-07-13T13:05:25;3.60;;;1.20;;
48859;SDS011;34679;51.436;-2.518;2023-07-13T13:07:52;6.85;;;1.50;;
48859;SDS011;34679;51.436;-2.518;2023-07-13T13:10:18;8.45;;;1.70;;
48859;SDS011;34679;51.436;-2.518;2023-07-13T13:12:43;7.88;;;1.55;;
48859;SDS011;34679;51.436;-2.518;2023-07-13T13:15:12;2.00;;;1.05;;
48859;SDS011;34679;51.436;-2.518;2023-07-13T13:17:38;8.75;;;1.40;;
48859;SDS011;34679;51.436;-2.518;2023-07-13T13:20:26;2.92;;;1.17;;
48859;SDS011;34679;51.436;-2.518;2023-07-13T13:22:51;2.72;;;1.00;;
48859;SDS011;34679;51.436;-2.518;2023-07-13T13:25:17;3.55;;;1.00;;
48859;SDS011;34679;51.436;-2.518;2023-07-13T13:27:44;3.63;;;1.13;;
48859;SDS011;34679;51.436;-2.518;2023-07-13T13:30:15;3.85;;;1.10;;
48859;SDS011;34679;51.436;-2.518;2023-07-13T13:32:42;2.38;;;1.23;;
48859;SDS011;34679;51.436;-2.518;2023-07-13T13:35:14;4.00;;;1.00;;
48859;SDS011;34679;51.436;-2.518;2023-07-13T13:37:45;3.13;;;1.10;;
48859;SDS011;34679;51.436;-2.518;2023-07-13T13:40:16;4.28;;;1.48;;
48859;SDS011;34679;51.436;-2.518;2023-07-13T13:42:47;2.22;;;1.00;;
48859;SDS011;34679;51.436;-2.518;2023-07-13T13:45:13;1.95;;;1.00;;
48859;SDS011;34679;51.436;-2.518;2023-07-13T13:47:39;3.20;;;0.95;;
48859;SDS011;34679;51.436;-2.518;2023-07-13T13:50:12;3.67;;;1.02;;
48859;SDS011;34679;51.436;-2.518;2023-07-13T13:52:47;2.47;;;0.98;;
48859;SDS011;34679;51.436;-2.518;2023-07-13T13:55:21;4.30;;;1.20;;
48859;SDS011;34679;51.436;-2.518;2023-07-13T13:57:49;2.50;;;1.25;;
48859;SDS011;34679;51.436;-2.518;2023-07-13T14:00:15;5.72;;;1.02;;
48859;SDS011;34679;51.436;-2.518;2023-07-13T14:02:44;2.75;;;1.23;;
48859;SDS011;34679;51.436;-2.518;2023-07-13T14:05:18;3.42;;;1.40;;
48859;SDS011;34679;51.436;-2.518;2023-07-13T14:07:47;4.43;;;1.40;;
48859;SDS011;34679;51.436;-2.518;2023-07-13T14:10:14;4.90;;;1.20;;
48859;SDS011;34679;51.436;-2.518;2023-07-13T14:12:44;4.25;;;1.42;;
48859;SDS011;34679;51.436;-2.518;2023-07-13T14:15:23;4.43;;;1.50;;
48859;SDS011;34679;51.436;-2.518;2023-07-13T14:17:52;5.63;;;1.35;;
48859;SDS011;34679;51.436;-2.518;2023-07-13T14:20:19;5.70;;;1.92;;
48859;SDS011;34679;51.436;-2.518;2023-07-13T14:22:48;9.25;;;1.90;;
48859;SDS011;34679;51.436;-2.518;2023-07-13T14:25:15;4.63;;;1.80;;
48859;SDS011;34679;51.436;-2.518;2023-07-13T14:27:42;8.20;;;3.35;;
48859;SDS011;34679;51.436;-2.518;2023-07-13T14:30:13;6.15;;;2.35;;
48859;SDS011;34679;51.436;-2.518;2023-07-13T14:32:40;3.13;;;1.90;;
48859;SDS011;34679;51.436;-2.518;2023-07-13T14:35:07;3.42;;;1.88;;
48859;SDS011;34679;51.436;-2.518;2023-07-13T14:37:35;6.07;;;2.53;;
48859;SDS011;34679;51.436;-2.518;2023-07-13T14:40:01;6.70;;;1.77;;
48859;SDS011;34679;51.436;-2.518;2023-07-13T14:42:28;4.00;;;1.90;;
48859;SDS011;34679;51.436;-2.518;2023-07-13T14:44:53;5.28;;;1.25;;
48859;SDS011;34679;51.436;-2.518;2023-07-13T14:47:19;2.95;;;1.50;;
48859;SDS011;34679;51.436;-2.518;2023-07-13T14:49:45;6.43;;;1.73;;
48859;SDS011;34679;51.436;-2.518;2023-07-13T14:52:18;4.22;;;1.38;;
48859;SDS011;34679;51.436;-2.518;2023-07-13T14:54:45;4.78;;;1.63;;
48859;SDS011;34679;51.436;-2.518;2023-07-13T14:57:15;5.45;;;1.70;;
48859;SDS011;34679;51.436;-2.518;2023-07-13T14:59:43;4.97;;;1.30;;
48859;SDS011;34679;51.436;-2.518;2023-07-13T15:04:40;5.85;;;1.70;;
48859;SDS011;34679;51.436;-2.518;2023-07-13T15:07:07;3.28;;;1.38;;
48859;SDS011;34679;51.436;-2.518;2023-07-13T15:09:35;2.53;;;1.35;;
48859;SDS011;34679;51.436;-2.518;2023-07-13T15:12:01;5.88;;;1.60;;
48859;SDS011;34679;51.436;-2.518;2023-07-13T15:14:27;4.50;;;1.90;;
48859;SDS011;34679;51.436;-2.518;2023-07-13T15:16:54;6.35;;;1.98;;
48859;SDS011;34679;51.436;-2.518;2023-07-13T15:19:20;4.30;;;1.38;;
48859;SDS011;34679;51.436;-2.518;2023-07-13T15:21:49;7.03;;;1.70;;
48859;SDS011;34679;51.436;-2.518;2023-07-13T15:24:15;6.97;;;1.67;;
48859;SDS011;34679;51.436;-2.518;2023-07-13T15:26:41;4.35;;;1.50;;
48859;SDS011;34679;51.436;-2.518;2023-07-13T15:29:11;12.45;;;4.18;;
48859;SDS011;34679;51.436;-2.518;2023-07-13T15:31:37;7.80;;;2.42;;